createdAt,value
2017-10-05T00:01:00.016Z,11.50
2017-10-05T00:03:28.163Z,11.50
2017-10-05T00:05:56.233Z,11.50
2017-10-05T00:08:25.108Z,11.50
2017-10-05T00:10:53.197Z,11.50
2017-10-05T00:13:22.037Z,11.60
2017-10-05T00:15:50.121Z,11.50
2017-10-05T00:18:18.211Z,11.60
2017-10-05T00:20:48.307Z,11.50
2017-10-05T00:23:17.140Z,11.60
2017-10-05T00:25:45.308Z,11.50
2017-10-05T00:28:14.218Z,11.50
2017-10-05T00:30:42.315Z,11.50
2017-10-05T00:33:11.190Z,11.60
2017-10-05T00:35:40.114Z,11.60
2017-10-05T00:38:09.109Z,11.50
2017-10-05T00:40:37.199Z,11.40
2017-10-05T00:43:05.286Z,11.50
2017-10-05T00:45:34.260Z,11.40
2017-10-05T00:48:02.328Z,11.40
2017-10-05T00:50:31.185Z,11.40
2017-10-05T00:52:59.290Z,11.40
2017-10-05T00:55:27.415Z,11.40
2017-10-05T00:57:55.494Z,11.40
2017-10-05T01:00:23.694Z,11.40
2017-10-05T01:02:51.894Z,11.40
2017-10-05T01:05:19.972Z,11.40
2017-10-05T01:07:48.141Z,11.40
2017-10-05T01:10:16.212Z,11.40
2017-10-05T01:12:44.382Z,11.40
2017-10-05T01:15:12.453Z,11.50
2017-10-05T01:17:40.577Z,11.40
2017-10-05T01:20:09.454Z,11.50
2017-10-05T01:22:37.526Z,11.50
2017-10-05T01:25:05.655Z,11.50
2017-10-05T01:27:33.871Z,11.50
2017-10-05T01:30:02.013Z,11.50
2017-10-05T01:32:30.157Z,11.50
2017-10-05T01:34:58.281Z,11.50
2017-10-05T01:37:26.462Z,11.50
2017-10-05T01:39:55.317Z,11.50
2017-10-05T01:42:23.453Z,11.40
2017-10-05T01:44:51.564Z,11.50
2017-10-05T01:47:20.413Z,11.40
2017-10-05T01:49:48.515Z,11.40
2017-10-05T01:52:16.610Z,11.40
2017-10-05T01:54:44.713Z,11.30
2017-10-05T01:57:14.312Z,11.40
2017-10-05T01:59:42.444Z,11.30
2017-10-05T02:02:10.515Z,11.50
2017-10-05T02:04:39.342Z,11.40
2017-10-05T02:07:07.475Z,11.40
2017-10-05T02:09:36.316Z,11.40
2017-10-05T02:12:04.498Z,11.40
2017-10-05T02:14:33.356Z,11.40
2017-10-05T02:17:01.538Z,11.30
2017-10-05T02:19:29.618Z,11.30
2017-10-05T02:21:57.747Z,11.30
2017-10-05T02:24:26.634Z,11.20
2017-10-05T02:26:54.709Z,11.20
2017-10-05T02:29:22.822Z,11.20
2017-10-05T02:31:51.019Z,11.20
2017-10-05T02:34:19.390Z,11.10
2017-10-05T02:36:47.484Z,11.10
2017-10-05T02:39:15.553Z,11.10
2017-10-05T02:41:43.677Z,11.10
2017-10-05T02:44:13.266Z,11.00
2017-10-05T02:46:41.587Z,11.00
2017-10-05T02:49:09.759Z,11.00
2017-10-05T02:51:38.622Z,11.10
2017-10-05T02:54:06.693Z,11.00
2017-10-05T02:56:34.763Z,11.00
2017-10-05T02:59:04.097Z,11.00
2017-10-05T03:01:32.958Z,11.00
2017-10-05T03:04:01.814Z,11.00
2017-10-05T03:06:29.899Z,10.90
2017-10-05T03:08:57.997Z,11.00
2017-10-05T03:11:26.069Z,10.90
2017-10-05T03:13:54.238Z,11.00
2017-10-05T03:16:22.317Z,11.00
2017-10-05T03:18:50.410Z,11.00
2017-10-05T03:21:18.527Z,11.00
2017-10-05T03:23:46.617Z,10.90
2017-10-05T03:26:15.474Z,10.90
2017-10-05T03:28:43.604Z,10.90
2017-10-05T03:31:12.510Z,10.80
2017-10-05T03:33:40.597Z,10.80
2017-10-05T03:36:08.744Z,10.80
2017-10-05T03:38:36.859Z,10.80
2017-10-05T03:41:04.971Z,10.90
2017-10-05T03:43:33.042Z,10.80
2017-10-05T03:46:01.161Z,10.80
2017-10-05T03:48:29.227Z,10.70
2017-10-05T03:50:57.350Z,10.70
2017-10-05T03:53:25.435Z,10.70
2017-10-05T03:55:54.281Z,10.70
2017-10-05T03:58:22.399Z,10.60
2017-10-05T04:00:50.511Z,10.70
2017-10-05T04:03:18.686Z,10.60
2017-10-05T04:05:46.766Z,10.60
2017-10-05T04:08:14.882Z,10.60
2017-10-05T04:10:43.013Z,10.60
2017-10-05T04:13:11.116Z,10.60
2017-10-05T04:15:39.211Z,10.60
2017-10-05T04:18:07.304Z,10.60
2017-10-05T04:20:36.158Z,10.60
2017-10-05T04:23:04.281Z,10.50
2017-10-05T04:25:32.419Z,10.60
2017-10-05T04:28:01.258Z,10.50
2017-10-05T04:30:29.353Z,10.50
2017-10-05T04:32:57.457Z,10.50
2017-10-05T04:35:25.560Z,10.50
2017-10-05T04:37:53.669Z,10.60
2017-10-05T04:40:21.759Z,10.50
2017-10-05T04:42:50.643Z,10.50
2017-10-05T04:45:18.744Z,10.50
2017-10-05T04:47:47.599Z,10.50
2017-10-05T04:50:16.437Z,10.50
2017-10-05T04:52:44.521Z,10.50
2017-10-05T04:55:12.708Z,10.50
2017-10-05T04:57:40.958Z,10.50
2017-10-05T05:00:09.060Z,10.50
2017-10-05T05:02:37.160Z,10.60
2017-10-05T05:05:05.258Z,10.70
2017-10-05T05:07:33.329Z,10.70
2017-10-05T05:10:01.440Z,10.70
2017-10-05T05:12:30.301Z,10.80
2017-10-05T05:14:58.431Z,10.80
2017-10-05T05:17:27.295Z,10.90
2017-10-05T05:19:55.370Z,10.90
2017-10-05T05:22:23.465Z,10.90
2017-10-05T05:24:51.549Z,10.80
2017-10-05T05:27:19.654Z,10.70
2017-10-05T05:29:47.743Z,10.60
2017-10-05T05:32:15.918Z,10.60
2017-10-05T05:34:44.045Z,10.70
2017-10-05T05:37:12.145Z,10.70
2017-10-05T05:39:40.225Z,10.80
2017-10-05T05:42:08.348Z,10.80
2017-10-05T05:44:36.440Z,10.80
2017-10-05T05:47:04.515Z,10.70
2017-10-05T05:49:32.611Z,10.70
2017-10-05T05:52:00.704Z,10.70
2017-10-05T05:54:28.808Z,10.60
2017-10-05T05:56:56.873Z,10.60
2017-10-05T05:59:24.995Z,10.60
2017-10-05T06:01:53.084Z,10.50
2017-10-05T06:04:21.155Z,10.40
2017-10-05T06:06:50.034Z,10.20
2017-10-05T06:09:18.109Z,10.20
2017-10-05T06:11:46.212Z,10.20
2017-10-05T06:14:14.348Z,10.20
2017-10-05T06:16:43.187Z,10.10
2017-10-05T06:19:12.074Z,10.00
2017-10-05T06:21:40.239Z,10.00
2017-10-05T06:24:09.095Z,10.10
2017-10-05T06:26:37.249Z,10.00
2017-10-05T06:29:05.495Z,10.10
2017-10-05T06:31:33.990Z,10.00
2017-10-05T06:34:02.339Z,10.00
2017-10-05T06:36:30.438Z,10.00
2017-10-05T06:38:58.537Z,10.00
2017-10-05T06:41:28.118Z,9.90
2017-10-05T06:43:56.194Z,9.90
2017-10-05T06:46:24.279Z,9.90
2017-10-05T06:48:52.358Z,10.00
2017-10-05T06:51:20.440Z,10.00
2017-10-05T06:53:48.538Z,10.00
2017-10-05T06:56:16.654Z,10.00
2017-10-05T06:58:44.771Z,10.00
2017-10-05T07:01:12.860Z,10.00
2017-10-05T07:03:40.959Z,10.00
2017-10-05T07:06:09.831Z,10.00
2017-10-05T07:08:38.877Z,10.00
2017-10-05T07:11:07.712Z,10.00
2017-10-05T07:13:35.810Z,10.00
2017-10-05T07:16:04.646Z,10.20
2017-10-05T07:18:32.750Z,10.10
2017-10-05T07:21:00.862Z,10.20
2017-10-05T07:23:28.996Z,10.20
2017-10-05T07:25:57.066Z,10.20
2017-10-05T07:28:25.186Z,10.20
2017-10-05T07:30:53.276Z,10.20
2017-10-05T07:33:21.385Z,10.10
2017-10-05T07:35:49.559Z,10.20
2017-10-05T07:38:17.695Z,10.30
2017-10-05T07:40:45.924Z,10.30
2017-10-05T07:43:14.025Z,10.20
2017-10-05T07:45:42.274Z,10.20
2017-10-05T07:48:11.234Z,10.20
2017-10-05T07:50:40.097Z,10.20
2017-10-05T07:53:08.205Z,10.20
2017-10-05T07:55:36.302Z,10.20
2017-10-05T07:58:04.449Z,10.20
2017-10-05T08:00:32.550Z,10.30
2017-10-05T08:03:00.622Z,10.20
2017-10-05T08:05:29.523Z,10.20
2017-10-05T08:07:58.387Z,10.30
2017-10-05T08:10:26.542Z,10.20
2017-10-05T08:12:55.259Z,10.20
2017-10-05T08:15:23.391Z,10.10
2017-10-05T08:17:51.475Z,10.10
2017-10-05T08:20:19.605Z,10.10
2017-10-05T08:22:47.732Z,10.00
2017-10-05T08:25:15.907Z,10.00
2017-10-05T08:27:44.034Z,10.00
2017-10-05T08:30:12.209Z,10.00
2017-10-05T08:32:40.328Z,10.00
2017-10-05T08:35:08.451Z,9.90
2017-10-05T08:37:37.303Z,9.90
2017-10-05T08:40:05.389Z,9.90
2017-10-05T08:42:33.499Z,10.00
2017-10-05T08:45:02.362Z,10.00
2017-10-05T08:47:30.465Z,10.00
2017-10-05T08:49:58.606Z,9.90
2017-10-05T08:52:26.687Z,10.00
2017-10-05T08:54:54.818Z,10.00
2017-10-05T08:57:22.885Z,9.90
2017-10-05T08:59:51.033Z,9.90
2017-10-05T09:02:19.097Z,9.90
2017-10-05T09:04:47.242Z,9.90
2017-10-05T09:07:15.337Z,9.90
2017-10-05T09:09:44.176Z,9.90
2017-10-05T09:12:12.385Z,9.80
2017-10-05T09:14:40.458Z,9.90
2017-10-05T09:17:08.548Z,10.00
2017-10-05T09:19:36.658Z,10.00
2017-10-05T09:22:04.789Z,9.90
2017-10-05T09:24:32.910Z,9.80
2017-10-05T09:27:01.786Z,9.80
2017-10-05T09:29:29.929Z,9.70
2017-10-05T09:31:58.050Z,9.80
2017-10-05T09:34:26.263Z,9.80
2017-10-05T09:36:54.446Z,9.70
2017-10-05T09:39:23.350Z,9.80
2017-10-05T09:41:53.009Z,9.60
2017-10-05T09:44:21.297Z,9.60
2017-10-05T09:46:50.958Z,9.60
2017-10-05T09:49:19.101Z,9.60
2017-10-05T09:51:47.236Z,9.70
2017-10-05T09:54:15.377Z,9.70
2017-10-05T09:56:43.498Z,9.70
2017-10-05T09:59:11.650Z,9.60
2017-10-05T10:01:40.511Z,9.70
2017-10-05T10:04:08.701Z,9.60
2017-10-05T10:06:36.779Z,9.70
2017-10-05T10:09:05.734Z,9.60
2017-10-05T10:11:33.954Z,9.50
2017-10-05T10:14:02.097Z,9.60
2017-10-05T10:16:30.560Z,9.60
2017-10-05T10:18:58.654Z,9.50
2017-10-05T10:21:26.737Z,9.50
2017-10-05T10:23:54.849Z,9.60
2017-10-05T10:26:23.054Z,9.60
2017-10-05T10:28:51.191Z,9.60
2017-10-05T10:31:19.407Z,9.60
2017-10-05T10:33:49.250Z,9.60
2017-10-05T10:36:17.322Z,9.60
2017-10-05T10:38:45.421Z,9.60
2017-10-05T10:41:13.556Z,9.60
2017-10-05T10:43:41.628Z,9.60
2017-10-05T10:46:09.778Z,9.50
2017-10-05T10:48:37.932Z,9.50
2017-10-05T10:51:06.778Z,9.60
2017-10-05T10:53:34.890Z,9.60
2017-10-05T10:56:03.053Z,9.60
2017-10-05T10:58:31.136Z,9.60
2017-10-05T11:01:00.765Z,9.60
2017-10-05T11:03:28.823Z,9.60
2017-10-05T11:05:56.942Z,9.70
2017-10-05T11:08:25.013Z,9.70
2017-10-05T11:10:53.895Z,9.90
2017-10-05T11:13:22.863Z,10.00
2017-10-05T11:15:50.974Z,10.00
2017-10-05T11:18:19.090Z,10.00
2017-10-05T11:20:47.947Z,9.90
2017-10-05T11:23:16.072Z,9.90
2017-10-05T11:25:44.172Z,9.90
2017-10-05T11:28:12.260Z,10.00
2017-10-05T11:30:40.362Z,10.00
2017-10-05T11:33:08.497Z,10.00
2017-10-05T11:35:36.575Z,10.00
2017-10-05T11:38:04.681Z,10.00
2017-10-05T11:40:33.678Z,10.00
2017-10-05T11:43:01.846Z,10.00
2017-10-05T11:45:29.983Z,10.00
2017-10-05T11:47:58.091Z,10.00
2017-10-05T11:50:26.161Z,10.00
2017-10-05T11:52:54.286Z,10.00
2017-10-05T11:55:22.395Z,10.00
2017-10-05T11:57:50.501Z,10.00
2017-10-05T12:00:18.588Z,10.10
2017-10-05T12:02:46.686Z,9.90
2017-10-05T12:05:14.780Z,9.90
2017-10-05T12:07:42.869Z,9.90
2017-10-05T12:10:11.024Z,9.90
2017-10-05T12:12:39.150Z,9.90
2017-10-05T12:15:07.283Z,10.00
2017-10-05T12:17:36.273Z,9.90
2017-10-05T12:20:04.417Z,9.90
2017-10-05T12:22:32.487Z,9.80
2017-10-05T12:25:00.614Z,9.80
2017-10-05T12:27:28.699Z,9.80
2017-10-05T12:29:56.790Z,9.80
2017-10-05T12:32:25.699Z,9.80
2017-10-05T12:34:53.767Z,9.70
2017-10-05T12:37:21.839Z,9.80
2017-10-05T12:39:49.944Z,9.90
2017-10-05T12:42:18.121Z,9.90
2017-10-05T12:44:47.005Z,9.80
2017-10-05T12:47:15.088Z,9.80
2017-10-05T12:49:43.967Z,9.80
2017-10-05T12:52:12.078Z,9.80
2017-10-05T12:54:40.333Z,9.80
2017-10-05T12:57:08.400Z,9.80
2017-10-05T12:59:36.521Z,9.70
2017-10-05T13:02:05.384Z,9.70
2017-10-05T13:04:33.589Z,9.70
2017-10-05T13:07:02.426Z,9.70
2017-10-05T13:09:30.589Z,9.60
2017-10-05T13:11:59.421Z,9.60
2017-10-05T13:14:29.015Z,9.40
2017-10-05T13:16:57.082Z,9.40
2017-10-05T13:19:25.945Z,9.40
2017-10-05T13:21:54.025Z,9.40
2017-10-05T13:24:22.887Z,9.40
2017-10-05T13:26:51.767Z,9.30
2017-10-05T13:29:19.891Z,9.30
2017-10-05T13:31:47.976Z,9.30
2017-10-05T13:34:16.082Z,9.20
2017-10-05T13:36:44.179Z,9.20
2017-10-05T13:39:12.322Z,9.20
2017-10-05T13:41:40.442Z,9.20
2017-10-05T13:44:09.280Z,9.20
2017-10-05T13:46:37.425Z,9.20
2017-10-05T13:49:05.535Z,9.30
2017-10-05T13:51:34.390Z,9.40
2017-10-05T13:54:03.107Z,9.30
2017-10-05T13:56:31.962Z,9.50
2017-10-05T13:59:00.868Z,9.50
2017-10-05T14:01:29.719Z,9.50
2017-10-05T14:03:57.882Z,9.50
2017-10-05T14:06:26.024Z,9.50
2017-10-05T14:08:54.097Z,9.60
2017-10-05T14:11:22.173Z,9.70
2017-10-05T14:13:50.260Z,9.70
2017-10-05T14:16:18.344Z,9.80
2017-10-05T14:18:46.446Z,9.80
2017-10-05T14:21:14.591Z,9.90
2017-10-05T14:23:43.517Z,9.90
2017-10-05T14:26:12.385Z,10.00
2017-10-05T14:28:40.495Z,9.90
2017-10-05T14:31:08.749Z,10.00
2017-10-05T14:33:36.793Z,10.10
2017-10-05T14:36:06.397Z,10.10
2017-10-05T14:38:34.502Z,10.10
2017-10-05T14:41:02.605Z,10.20
2017-10-05T14:43:31.620Z,10.20
2017-10-05T14:45:59.708Z,10.20
2017-10-05T14:48:28.026Z,10.20
2017-10-05T14:50:56.140Z,10.20
2017-10-05T14:53:24.263Z,10.20
2017-10-05T14:55:52.388Z,10.30
2017-10-05T14:58:20.572Z,10.40
2017-10-05T15:00:48.694Z,10.60
2017-10-05T15:03:16.856Z,10.80
2017-10-05T15:05:44.964Z,10.90
2017-10-05T15:08:13.080Z,11.00
2017-10-05T15:10:41.187Z,11.10
2017-10-05T15:13:09.381Z,11.20
2017-10-05T15:15:38.257Z,11.30
2017-10-05T15:18:06.365Z,11.20
2017-10-05T15:20:35.740Z,11.40
2017-10-05T15:23:03.870Z,11.40
2017-10-05T15:25:32.724Z,11.50
2017-10-05T15:28:01.597Z,11.50
2017-10-05T15:30:29.785Z,11.50
2017-10-05T15:32:57.883Z,11.50
2017-10-05T15:35:25.982Z,11.60
2017-10-05T15:37:54.088Z,11.60
2017-10-05T15:40:22.225Z,11.60
2017-10-05T15:42:50.320Z,11.60
2017-10-05T15:45:18.439Z,11.60
2017-10-05T15:47:47.294Z,11.70
2017-10-05T15:50:15.383Z,11.70
2017-10-05T15:52:43.466Z,11.80
2017-10-05T15:55:11.597Z,11.80
2017-10-05T15:57:39.670Z,11.80
2017-10-05T16:00:07.783Z,11.80
2017-10-05T16:02:35.858Z,11.90
2017-10-05T16:05:03.947Z,11.80
2017-10-05T16:07:32.031Z,11.90
2017-10-05T16:10:00.126Z,11.80
2017-10-05T16:12:29.005Z,11.90
2017-10-05T16:14:57.132Z,11.80
2017-10-05T16:17:25.984Z,11.80
2017-10-05T16:19:54.848Z,11.70
2017-10-05T16:22:22.939Z,11.70
2017-10-05T16:24:52.545Z,11.60
2017-10-05T16:27:20.627Z,11.60
2017-10-05T16:29:48.750Z,11.60
2017-10-05T16:32:16.833Z,11.70
2017-10-05T16:34:44.924Z,11.70
2017-10-05T16:37:13.042Z,11.70
2017-10-05T16:39:41.124Z,11.80
2017-10-05T16:42:09.249Z,11.70
2017-10-05T16:44:37.381Z,11.80
2017-10-05T16:47:06.067Z,11.80
2017-10-05T16:49:34.142Z,11.80
2017-10-05T16:52:02.227Z,11.80
2017-10-05T16:54:30.318Z,11.80
2017-10-05T16:56:58.537Z,11.80
2017-10-05T16:59:27.388Z,11.80
2017-10-05T17:01:55.640Z,11.80
2017-10-05T17:04:23.740Z,11.80
2017-10-05T17:06:51.810Z,11.80
2017-10-05T17:09:20.673Z,11.80
2017-10-05T17:11:48.821Z,11.80
2017-10-05T17:14:17.336Z,11.80
2017-10-05T17:16:45.416Z,11.90
2017-10-05T17:19:13.506Z,11.90
2017-10-05T17:21:41.651Z,11.90
2017-10-05T17:24:10.510Z,11.90
2017-10-05T17:26:38.682Z,11.80
2017-10-05T17:29:07.602Z,11.80
2017-10-05T17:31:35.702Z,11.80
2017-10-05T17:34:03.839Z,11.90
2017-10-05T17:36:32.046Z,11.90
2017-10-05T17:39:01.268Z,11.90
2017-10-05T17:41:29.525Z,12.00
2017-10-05T17:43:57.633Z,12.00
2017-10-05T17:46:25.840Z,12.00
2017-10-05T17:48:54.092Z,12.00
2017-10-05T17:51:22.701Z,12.10
2017-10-05T17:53:50.805Z,12.10
2017-10-05T17:56:19.725Z,11.90
2017-10-05T17:58:47.973Z,11.90
2017-10-05T18:01:17.604Z,12.00
2017-10-05T18:03:45.674Z,12.00
2017-10-05T18:06:14.531Z,12.10
2017-10-05T18:08:42.652Z,12.10
2017-10-05T18:11:10.745Z,12.20
2017-10-05T18:13:40.558Z,12.10
2017-10-05T18:16:09.414Z,12.20
2017-10-05T18:18:37.529Z,12.20
2017-10-05T18:21:05.621Z,12.20
2017-10-05T18:23:33.756Z,12.20
2017-10-05T18:26:02.650Z,12.20
2017-10-05T18:28:31.513Z,12.20
2017-10-05T18:31:00.499Z,12.20
2017-10-05T18:33:28.713Z,12.30
2017-10-05T18:35:56.868Z,12.30
2017-10-05T18:38:24.956Z,12.20
2017-10-05T18:40:53.095Z,12.20
2017-10-05T18:43:21.270Z,12.10
2017-10-05T18:45:49.412Z,12.10
2017-10-05T18:48:18.287Z,12.10
2017-10-05T18:50:46.432Z,12.10
2017-10-05T18:53:15.259Z,12.10
2017-10-05T18:55:44.130Z,12.10
2017-10-05T18:58:12.202Z,12.00
2017-10-05T19:00:42.719Z,12.10
2017-10-05T19:03:10.843Z,12.10
2017-10-05T19:05:39.720Z,12.10
2017-10-05T19:08:07.799Z,12.10
2017-10-05T19:10:35.875Z,12.20
2017-10-05T19:13:03.947Z,12.10
2017-10-05T19:15:32.851Z,12.20
2017-10-05T19:18:01.727Z,12.20
2017-10-05T19:20:29.810Z,12.20
2017-10-05T19:22:58.550Z,12.50
2017-10-05T19:25:26.673Z,13.00
2017-10-05T19:27:54.768Z,12.90
2017-10-05T19:30:22.842Z,12.50
2017-10-05T19:32:50.949Z,12.40
2017-10-05T19:35:19.806Z,12.20
2017-10-05T19:37:48.673Z,12.20
2017-10-05T19:40:16.774Z,12.20
2017-10-05T19:42:44.902Z,12.20
2017-10-05T19:45:13.751Z,12.20
2017-10-05T19:47:41.882Z,12.20
2017-10-05T19:50:09.998Z,12.20
2017-10-05T19:52:38.130Z,12.10
2017-10-05T19:55:06.195Z,12.10
2017-10-05T19:57:35.073Z,12.10
2017-10-05T20:00:03.281Z,12.10
2017-10-05T20:02:31.440Z,12.10
2017-10-05T20:04:59.642Z,12.10
2017-10-05T20:07:27.722Z,12.20
2017-10-05T20:09:55.801Z,12.10
2017-10-05T20:12:23.887Z,12.10
2017-10-05T20:14:57.583Z,12.00
2017-10-05T20:17:38.376Z,12.10
2017-10-05T20:23:16.685Z,11.90
2017-10-05T20:25:45.841Z,11.90
2017-10-05T20:28:19.620Z,11.80
2017-10-05T20:31:02.706Z,11.80
2017-10-05T20:33:30.919Z,11.70
2017-10-05T20:35:59.021Z,11.50
2017-10-05T20:38:27.132Z,11.50
2017-10-05T20:40:55.237Z,11.50
2017-10-05T20:43:23.333Z,11.50
2017-10-05T20:45:51.425Z,11.50
2017-10-05T20:48:19.544Z,11.40
2017-10-05T20:50:48.439Z,11.30
2017-10-05T20:53:16.597Z,11.30
2017-10-05T20:55:44.710Z,11.30
2017-10-05T20:58:12.783Z,11.30
2017-10-05T21:00:41.402Z,11.20
2017-10-05T21:03:09.562Z,11.20
2017-10-05T21:05:38.489Z,11.20
2017-10-05T21:08:07.360Z,11.20
2017-10-05T21:10:35.467Z,11.10
2017-10-05T21:13:03.538Z,11.20
2017-10-05T21:15:32.426Z,11.20
2017-10-05T21:18:00.497Z,11.10
2017-10-05T21:20:30.110Z,11.10
2017-10-05T21:22:58.250Z,11.10
2017-10-05T21:25:27.122Z,11.10
2017-10-05T21:27:55.202Z,11.10
2017-10-05T21:30:24.836Z,11.10
2017-10-05T21:32:53.038Z,11.00
2017-10-05T21:35:21.121Z,11.10
2017-10-05T21:37:49.256Z,11.10
2017-10-05T21:40:17.363Z,11.10
2017-10-05T21:42:45.445Z,11.10
2017-10-05T21:45:14.304Z,11.10
2017-10-05T21:47:42.531Z,11.00
2017-10-05T21:50:11.142Z,11.10
2017-10-05T21:52:39.303Z,11.10
2017-10-05T21:55:08.143Z,11.20
2017-10-05T21:57:37.002Z,11.20
2017-10-05T22:00:05.102Z,11.10
2017-10-05T22:02:33.241Z,11.10
2017-10-05T22:05:01.311Z,11.10
2017-10-05T22:07:29.383Z,11.10
2017-10-05T22:09:58.222Z,11.20
2017-10-05T22:12:27.067Z,11.20
2017-10-05T22:14:55.142Z,11.10
2017-10-05T22:17:23.243Z,11.20
2017-10-05T22:19:51.341Z,11.20
2017-10-05T22:22:19.446Z,11.20
2017-10-05T22:24:48.302Z,11.30
2017-10-05T22:27:16.370Z,11.30
2017-10-05T22:29:44.589Z,11.20
2017-10-05T22:32:12.653Z,11.20
2017-10-05T22:34:40.764Z,11.20
2017-10-05T22:37:08.848Z,11.20
2017-10-05T22:39:36.949Z,11.20
2017-10-05T22:42:05.161Z,11.10
2017-10-05T22:44:33.266Z,11.10
2017-10-05T22:47:01.425Z,11.00
2017-10-05T22:49:29.525Z,11.00
2017-10-05T22:51:58.386Z,11.00
2017-10-05T22:54:26.473Z,10.90
2017-10-05T22:56:54.610Z,10.90
2017-10-05T22:59:23.465Z,10.90
2017-10-05T23:01:51.551Z,10.80
2017-10-05T23:04:20.459Z,10.80
2017-10-05T23:06:48.525Z,10.70
2017-10-05T23:09:16.638Z,10.80
2017-10-05T23:11:45.305Z,10.80
2017-10-05T23:14:14.130Z,10.80
2017-10-05T23:16:42.294Z,10.80
2017-10-05T23:19:10.360Z,10.80
2017-10-05T23:21:39.242Z,10.90
2017-10-05T23:24:07.416Z,10.90
2017-10-05T23:26:35.497Z,11.00
2017-10-05T23:29:05.140Z,11.00
2017-10-05T23:31:33.998Z,11.10
2017-10-05T23:34:02.073Z,11.10
2017-10-05T23:36:30.189Z,11.10
2017-10-05T23:38:58.269Z,11.20
2017-10-05T23:41:26.372Z,11.20
2017-10-05T23:43:54.466Z,11.30
2017-10-05T23:46:23.315Z,11.20
2017-10-05T23:48:51.434Z,11.20
2017-10-05T23:51:19.506Z,11.30
2017-10-05T23:53:48.424Z,11.30
2017-10-05T23:56:16.532Z,11.30
2017-10-05T23:58:45.394Z,11.30
